Time;durP1;ratioP1;P1;durP2;ratioP2;P2;SDS_P1;SDS_P2;PMS_P1;PMS_P2;Temp;Humidity;BMP_temperature;BMP_pressure;BME280_temperature;BME280_humidity;BME280_pressure;Samples;Min_cycle;Max_cycle;Signal;HPM_P1;HPM_P2
2024/02/09 00:00:17;;;;;;;0.10;0.10;;;;;;;8.28;81.67;97004.97;7370357;19;20027;-61
2024/02/09 00:02:48;;;;;;;0.10;0.10;;;;;;;8.30;81.14;96996.09;7369429;19;20699;-62
2024/02/09 00:05:19;;;;;;;0.10;0.10;;;;;;;8.15;81.22;96970.41;7372741;19;20093;-61
2024/02/09 00:08:00;;;;;;;0.10;0.10;;;;;;;8.32;81.17;96996.00;7376016;19;20049;-61
2024/02/09 00:10:36;;;;;;;0.10;0.10;;;;;;;8.30;81.04;96996.09;7376073;19;20356;-60
2024/02/09 00:13:04;;;;;;;0.10;0.10;;;;;;;8.25;81.51;96992.19;7370326;19;20013;-61
2024/02/09 00:15:31;;;;;;;0.10;0.10;;;;;;;8.27;81.12;96992.94;7369406;19;20007;-62
2024/02/09 00:17:56;;;;;;;0.03;0.03;;;;;;;8.26;81.46;96993.84;7370163;19;20089;-60
2024/02/09 00:20:27;;;;;;;0.10;0.10;;;;;;;8.15;81.22;96967.81;7368515;19;20030;-60
2024/02/09 00:23:12;;;;;;;0.10;0.10;;;;;;;8.28;81.39;96989.38;7368585;19;20431;-62
2024/02/09 00:25:37;;;;;;;0.10;0.10;;;;;;;8.15;81.14;96978.19;7373060;19;20003;-61
2024/02/09 00:28:03;;;;;;;0.10;0.10;;;;;;;8.04;81.55;96972.00;7366894;19;20884;-62
2024/02/09 00:30:29;;;;;;;0.10;0.10;;;;;;;8.19;81.16;96975.28;7367968;19;20022;-62
2024/02/09 00:32:58;;;;;;;0.08;0.08;;;;;;;8.09;81.17;96961.28;7374905;19;20011;-60
2024/02/09 00:35:25;;;;;;;0.10;0.10;;;;;;;8.20;81.50;96979.53;7367988;19;20017;-61
2024/02/09 00:37:55;;;;;;;0.10;0.10;;;;;;;8.19;81.32;96979.66;7371336;19;20017;-61
2024/02/09 00:40:29;;;;;;;0.00;0.00;;;;;;;8.21;81.32;96981.22;7372512;19;20027;-61
2024/02/09 00:43:11;;;;;;;0.10;0.10;;;;;;;8.17;81.07;96971.13;7369179;19;20010;-61
2024/02/09 00:45:36;;;;;;;;;;;;;;;8.21;80.83;96978.59;7369962;19;20050;-61
2024/02/09 00:48:11;;;;;;;0.03;0.03;;;;;;;8.19;81.45;96969.25;7367555;19;20841;-62
2024/02/09 00:50:37;;;;;;;0.10;0.10;;;;;;;8.16;81.27;96959.06;7376466;19;20086;-60
2024/02/09 00:53:08;;;;;;;0.10;0.10;;;;;;;8.00;81.41;96943.75;7369955;19;20101;-62
2024/02/09 00:55:33;;;;;;;0.10;0.10;;;;;;;8.06;81.62;96948.53;7370556;19;20018;-61
2024/02/09 00:57:59;;;;;;;0.10;0.10;;;;;;;7.93;81.43;96933.00;7367865;19;20503;-61
2024/02/09 01:00:25;;;;;;;0.10;0.10;;;;;;;8.12;81.51;96960.25;7367486;19;20039;-61
2024/02/09 01:03:04;;;;;;;0.10;0.10;;;;;;;8.13;81.56;96959.31;7368715;19;20378;-62
2024/02/09 01:05:30;;;;;;;0.10;0.10;;;;;;;7.91;81.29;96932.28;7365956;19;20106;-61
2024/02/09 01:07:55;;;;;;;0.10;0.10;;;;;;;8.07;81.13;96964.00;7366413;19;20464;-60
2024/02/09 01:10:20;;;;;;;0.10;0.10;;;;;;;8.09;81.38;96953.50;7367513;19;20014;-61
2024/02/09 02:44:50;;;;;;;0.10;0.10;;;;;;;7.69;81.34;96857.66;7366811;19;20042;-62
2024/02/09 02:47:16;;;;;;;0.10;0.10;;;;;;;7.81;81.34;96876.75;7366885;19;20013;-62
2024/02/09 03:06:15;;;;;;;0.00;0.00;;;;;;;7.50;81.23;96811.47;7364949;19;20051;-62
2024/02/09 03:08:40;;;;;;;0.10;0.10;;;;;;;7.88;81.22;96866.72;7363431;19;20397;-62
2024/02/09 03:11:06;;;;;;;0.13;0.13;;;;;;;7.48;81.17;96796.94;7362200;19;20013;-62
2024/02/09 03:13:42;;;;;;;0.10;0.10;;;;;;;7.90;81.42;96862.25;7361824;19;20458;-62
2024/02/09 03:16:07;;;;;;;0.00;0.00;;;;;;;7.80;81.18;96846.50;7365115;19;20925;-62
2024/02/09 03:18:36;;;;;;;0.10;0.10;;;;;;;7.94;81.15;96861.91;7370179;19;20010;-62
2024/02/09 03:21:01;;;;;;;0.10;0.10;;;;;;;7.54;81.33;96796.47;7370723;19;20761;-62
2024/02/09 03:23:27;;;;;;;0.00;0.00;;;;;;;7.84;81.10;96837.56;7370006;19;20010;-62
2024/02/09 03:25:53;;;;;;;0.10;0.10;;;;;;;7.92;81.49;96853.41;7369917;19;20375;-62
2024/02/09 03:28:18;;;;;;;0.10;0.10;;;;;;;7.96;81.06;96844.47;7364880;19;20125;-62
2024/02/09 03:30:44;;;;;;;0.00;0.00;;;;;;;7.96;81.27;96847.06;7368789;19;20011;-62
2024/02/09 03:33:11;;;;;;;0.10;0.10;;;;;;;7.94;80.96;96838.53;7369824;19;20014;-61
2024/02/09 03:35:42;;;;;;;0.10;0.10;;;;;;;7.95;80.95;96834.97;7369922;19;20019;-61
2024/02/09 03:38:07;;;;;;;0.10;0.10;;;;;;;7.86;81.28;96825.28;7369706;19;20701;-60
2024/02/09 03:40:33;;;;;;;0.10;0.10;;;;;;;7.98;81.21;96846.94;7367572;19;20026;-62
2024/02/09 03:42:58;;;;;;;0.10;0.10;;;;;;;7.92;81.10;96827.44;7369942;19;20018;-61
2024/02/09 03:45:23;;;;;;;0.03;0.03;;;;;;;7.93;81.18;96834.28;7365756;19;20022;-61
2024/02/09 03:47:52;;;;;;;0.10;0.10;;;;;;;7.98;81.22;96837.38;7369230;19;20013;-60
2024/02/09 03:50:17;;;;;;;0.10;0.10;;;;;;;7.99;81.17;96833.81;7369090;19;20018;-60
2024/02/09 03:52:44;;;;;;;0.10;0.10;;;;;;;7.81;80.75;96796.25;7367918;19;20106;-62
2024/02/09 03:55:42;;;;;;;0.10;0.10;;;;;;;8.02;81.06;96828.41;7373178;19;20029;-61
2024/02/09 03:58:08;;;;;;;0.03;0.03;;;;;;;7.99;81.21;96820.00;7368484;19;20587;-62
2024/02/09 04:00:33;;;;;;;0.10;0.10;;;;;;;7.96;80.97;96815.06;7368605;19;20014;-62
2024/02/09 04:02:59;;;;;;;0.10;0.10;;;;;;;7.87;80.77;96798.38;7369386;19;20016;-61
2024/02/09 04:05:31;;;;;;;0.10;0.10;;;;;;;8.03;80.94;96819.66;7368995;19;20024;-62
2024/02/09 04:08:04;;;;;;;0.00;0.00;;;;;;;8.02;80.69;96812.81;7369377;19;20022;-62
2024/02/09 04:10:29;;;;;;;0.10;0.10;;;;;;;8.01;80.78;96815.53;7368551;19;20020;-62
2024/02/09 04:13:01;;;;;;;0.10;0.10;;;;;;;7.90;80.94;96803.31;7368785;19;20010;-62
2024/02/09 04:15:28;;;;;;;0.10;0.10;;;;;;;7.90;81.02;96792.94;7367533;19;20034;-62
2024/02/09 04:17:53;;;;;;;0.10;0.10;;;;;;;7.98;80.69;96811.38;7366025;19;20049;-62
2024/02/09 04:20:19;;;;;;;0.10;0.10;;;;;;;8.00;80.83;96819.88;7368915;19;20482;-62
2024/02/09 04:22:44;;;;;;;0.10;0.10;;;;;;;8.00;80.93;96809.50;7369702;19;20007;-62
2024/02/09 04:25:15;;;;;;;0.10;0.10;;;;;;;7.94;80.88;96799.56;7368180;19;20010;-62
2024/02/09 04:27:41;;;;;;;0.05;0.05;;;;;;;7.97;81.02;96808.91;7368495;19;20014;-62
2024/02/09 04:30:07;;;;;;;0.10;0.10;;;;;;;7.87;81.01;96792.34;7371391;19;20014;-62
2024/02/09 04:32:33;;;;;;;0.10;0.10;;;;;;;7.98;81.01;96813.16;7373413;19;20771;-62
2024/02/09 04:34:59;;;;;;;0.10;0.10;;;;;;;7.97;80.78;96806.31;7368287;19;20006;-61
2024/02/09 04:37:24;;;;;;;0.10;0.10;;;;;;;7.92;80.90;96796.25;7367358;19;20040;-62
2024/02/09 04:39:49;;;;;;;0.10;0.10;;;;;;;7.78;80.90;96778.28;7368258;19;20387;-62
2024/02/09 04:42:20;;;;;;;0.10;0.10;;;;;;;7.97;80.87;96809.75;7367483;19;20022;-62
2024/02/09 04:44:46;;;;;;;0.10;0.10;;;;;;;7.94;80.97;96807.34;7368459;19;20423;-61
2024/02/09 04:47:15;;;;;;;0.10;0.10;;;;;;;7.77;80.98;96781.81;7371977;19;20108;-62
2024/02/09 04:49:41;;;;;;;0.08;0.08;;;;;;;7.82;80.71;96792.69;7374611;19;20002;-63
2024/02/09 04:52:07;;;;;;;0.10;0.10;;;;;;;7.95;80.94;96811.59;7370409;19;20046;-62
2024/02/09 04:54:33;;;;;;;0.10;0.10;;;;;;;7.82;80.72;96795.28;7367208;19;20085;-62
2024/02/09 04:56:58;;;;;;;0.10;0.10;;;;;;;7.94;80.79;96812.56;7367449;19;20014;-61
2024/02/09 04:59:28;;;;;;;0.10;0.10;;;;;;;7.92;80.69;96811.84;7371558;19;20023;-61
2024/02/09 05:01:53;;;;;;;0.00;0.00;;;;;;;7.90;80.79;96808.53;7366715;19;20014;-62
2024/02/09 05:04:18;;;;;;;0.10;0.10;;;;;;;7.75;80.56;96783.69;7367831;19;20508;-61
2024/02/09 05:06:44;;;;;;;0.10;0.10;;;;;;;7.74;80.95;96776.84;7366974;19;20010;-62
2024/02/09 05:09:09;;;;;;;0.10;0.10;;;;;;;7.93;80.82;96816.09;7364201;19;20005;-62
2024/02/09 05:11:38;;;;;;;0.10;0.10;;;;;;;7.94;80.58;96820.34;7367044;19;20097;-62
2024/02/09 05:14:07;;;;;;;0.10;0.10;;;;;;;7.86;81.05;96801.91;7367426;19;20017;-62
2024/02/09 05:16:36;;;;;;;0.10;0.10;;;;;;;7.92;80.69;96806.66;7365826;19;20014;-62
2024/02/09 05:19:01;;;;;;;0.10;0.10;;;;;;;7.91;80.76;96810.19;7368645;19;20006;-63
2024/02/09 05:21:28;;;;;;;0.10;0.10;;;;;;;7.93;80.76;96807.47;7366489;19;20009;-62
2024/02/09 05:23:53;;;;;;;0.10;0.10;;;;;;;7.93;80.99;96802.28;7368534;19;20015;-62
2024/02/09 05:26:24;;;;;;;0.03;0.03;;;;;;;7.84;80.84;96801.19;7372468;19;20040;-62
2024/02/09 05:28:52;;;;;;;0.10;0.10;;;;;;;7.92;80.91;96809.25;7365493;19;20010;-62
2024/02/09 05:31:25;;;;;;;0.10;0.10;;;;;;;7.83;80.52;96796.94;7364754;19;20014;-61
2024/02/09 05:33:54;;;;;;;0.10;0.10;;;;;;;7.94;80.55;96815.16;7363061;19;20006;-62
2024/02/09 05:36:29;;;;;;;0.10;0.10;;;;;;;7.93;80.95;96813.50;7366925;19;20037;-62
2024/02/09 05:39:00;;;;;;;0.10;0.10;;;;;;;7.92;80.71;96817.03;7367360;19;20014;-60
2024/02/09 05:41:26;;;;;;;0.10;0.10;;;;;;;7.92;80.86;96811.84;7367021;19;21210;-60
2024/02/09 05:44:13;;;;;;;0.10;0.10;;;;;;;7.85;80.89;96795.03;7367396;19;20014;-63
2024/02/09 05:46:39;;;;;;;0.05;0.05;;;;;;;7.89;80.73;96806.03;7367112;19;20017;-62
2024/02/09 05:49:06;;;;;;;0.10;0.10;;;;;;;7.94;80.72;96815.16;7366046;19;20010;-62
2024/02/09 05:51:33;;;;;;;0.10;0.10;;;;;;;7.95;80.70;96814.19;7365692;19;20453;-62
2024/02/09 05:53:58;;;;;;;0.03;0.03;;;;;;;7.82;80.92;96789.28;7365641;19;20583;-62
2024/02/09 05:56:29;;;;;;;0.10;0.10;;;;;;;7.93;80.96;96810.91;7365196;19;20557;-62
2024/02/09 05:58:56;;;;;;;0.10;0.10;;;;;;;7.96;80.74;96812.47;7365631;19;20014;-62
2024/02/09 06:01:22;;;;;;;0.10;0.10;;;;;;;7.95;80.58;96806.41;7366408;19;20677;-62
2024/02/09 06:03:48;;;;;;;0.10;0.10;;;;;;;7.92;80.87;96791.06;7366575;19;19994;-63
2024/02/09 06:06:20;;;;;;;0.10;0.10;;;;;;;7.84;80.74;96788.19;7365032;19;20588;-61
2024/02/09 06:08:47;;;;;;;0.10;0.10;;;;;;;7.98;80.73;96811.38;7364699;19;19998;-60
2024/02/09 06:11:13;;;;;;;0.10;0.10;;;;;;;7.62;80.46;96738.81;7361713;19;20502;-62
2024/02/09 06:13:44;;;;;;;0.10;0.10;;;;;;;7.99;80.71;96807.84;7364659;19;19999;-62
2024/02/09 06:16:22;;;;;;;0.10;0.10;;;;;;;8.01;80.80;96800.78;7364475;19;20022;-62
2024/02/09 06:18:49;;;;;;;0.10;0.10;;;;;;;8.00;80.95;96809.50;7364628;19;20453;-60
2024/02/09 06:21:16;;;;;;;0.10;0.10;;;;;;;8.00;80.44;96804.28;7365632;19;20022;-62
2024/02/09 06:23:44;;;;;;;0.10;0.10;;;;;;;7.98;80.68;96795.81;7366816;19;20595;-60
2024/02/09 06:26:09;;;;;;;0.10;0.10;;;;;;;7.60;80.81;96738.09;7366267;19;20014;-62
2024/02/09 06:28:35;;;;;;;0.10;0.10;;;;;;;7.98;80.96;96803.59;7364477;19;20043;-62
2024/02/09 06:31:01;;;;;;;0.10;0.10;;;;;;;7.93;80.53;96790.13;7364297;19;20022;-63
2024/02/09 06:33:36;;;;;;;0.10;0.10;;;;;;;8.01;80.61;96795.59;7364705;19;20096;-62
2024/02/09 06:36:14;;;;;;;0.10;0.10;;;;;;;8.05;80.61;96807.38;7365426;19;20007;-62
2024/02/09 06:38:41;;;;;;;0.10;0.10;;;;;;;8.03;80.95;96809.28;7365317;19;20014;-61
2024/02/09 06:41:09;;;;;;;0.10;0.10;;;;;;;8.00;80.57;96804.28;7364778;19;20505;-62
2024/02/09 06:43:36;;;;;;;0.17;0.17;;;;;;;8.00;80.62;96804.28;7364903;19;20010;-62
2024/02/09 06:46:01;;;;;;;0.00;0.00;;;;;;;8.03;80.69;96809.28;7366918;19;20056;-60
2024/02/09 06:48:28;;;;;;;0.00;0.00;;;;;;;8.01;80.65;96800.78;7364196;19;20592;-63
2024/02/09 06:50:56;;;;;;;0.10;0.10;;;;;;;7.64;80.79;96745.53;7365505;19;20541;-62
2024/02/09 06:53:22;;;;;;;0.10;0.10;;;;;;;7.95;80.73;96801.22;7372619;19;20014;-62
2024/02/09 06:56:00;;;;;;;0.10;0.10;;;;;;;8.01;80.50;96805.97;7371897;19;20029;-62
2024/02/09 06:58:33;;;;;;;0.10;0.10;;;;;;;8.06;80.67;96809.06;7368848;19;20010;-62
2024/02/09 07:00:59;;;;;;;0.13;0.13;;;;;;;8.03;80.62;96814.47;7372880;19;20102;-61
2024/02/09 07:03:26;;;;;;;0.10;0.10;;;;;;;8.03;80.48;96806.69;7370481;19;20029;-62
2024/02/09 07:05:54;;;;;;;0.10;0.10;;;;;;;8.04;80.37;96804.91;7371542;19;20014;-62
2024/02/09 07:08:36;;;;;;;0.10;0.10;;;;;;;8.07;80.63;96807.28;7369476;19;20518;-62
2024/02/09 07:11:11;;;;;;;0.10;0.10;;;;;;;8.07;80.51;96807.28;7372518;19;20010;-62
2024/02/09 07:13:41;;;;;;;0.10;0.10;;;;;;;8.06;80.50;96806.47;7371646;19;20009;-62
2024/02/09 07:16:07;;;;;;;0.10;0.10;;;;;;;8.05;80.58;96806.56;7372170;19;20022;-62
2024/02/09 07:18:39;;;;;;;0.20;0.20;;;;;;;8.04;80.58;96805.72;7372455;19;20048;-61
2024/02/09 07:21:05;;;;;;;0.10;0.10;;;;;;;8.04;80.40;96810.94;7370392;19;20018;-62
2024/02/09 07:23:41;;;;;;;0.10;0.10;;;;;;;7.94;80.71;96794.38;7372319;19;20031;-62
2024/02/09 07:26:15;;;;;;;0.10;0.10;;;;;;;8.05;80.72;96809.97;7377014;19;20110;-62
2024/02/09 07:28:58;;;;;;;0.10;0.10;;;;;;;8.07;80.70;96810.72;7374877;19;20409;-62
2024/02/09 07:31:25;;;;;;;0.10;0.10;;;;;;;8.06;80.55;96808.22;7367616;19;20022;-61
2024/02/09 07:33:51;;;;;;;0.10;0.10;;;;;;;8.02;80.43;96802.44;7370525;19;20007;-62
2024/02/09 07:36:16;;;;;;;0.10;0.10;;;;;;;8.07;80.78;96818.50;7370114;19;20090;-62
2024/02/09 07:38:43;;;;;;;0.10;0.10;;;;;;;7.93;80.56;96787.53;7368778;19;20097;-62
2024/02/09 07:41:18;;;;;;;0.10;0.10;;;;;;;8.06;80.58;96814.25;7375301;19;20429;-62
2024/02/09 07:44:01;;;;;;;0.05;0.05;;;;;;;8.10;80.64;96814.00;7376673;19;20023;-62
2024/02/09 07:46:27;;;;;;;0.00;0.00;;;;;;;8.06;80.50;96809.06;7370390;19;20018;-61
2024/02/09 07:48:53;;;;;;;0.05;0.05;;;;;;;8.05;80.57;96815.16;7367450;19;20013;-62
2024/02/09 07:51:20;;;;;;;0.10;0.10;;;;;;;8.05;80.53;96822.97;7369895;19;20054;-62
2024/02/09 07:53:52;;;;;;;0.10;0.10;;;;;;;8.05;80.48;96822.13;7369089;19;20092;-62
2024/02/09 07:56:23;;;;;;;0.10;0.10;;;;;;;8.05;80.88;96820.38;7366811;19;20462;-62
2024/02/09 07:58:52;;;;;;;0.10;0.10;;;;;;;8.07;80.68;96821.09;7367459;19;20014;-62
2024/02/09 08:01:21;;;;;;;0.10;0.10;;;;;;;7.98;80.26;96811.38;7368128;19;20011;-62
2024/02/09 08:03:48;;;;;;;0.00;0.00;;;;;;;8.05;80.49;96817.78;7372430;19;20101;-61
2024/02/09 08:06:13;;;;;;;0.10;0.10;;;;;;;8.04;80.52;96821.31;7372137;19;20844;-61
2024/02/09 08:08:39;;;;;;;0.10;0.10;;;;;;;8.09;80.84;96822.75;7366095;19;20011;-62
2024/02/09 08:11:04;;;;;;;0.10;0.10;;;;;;;8.07;80.41;96823.69;7368310;19;20018;-61
2024/02/09 08:13:30;;;;;;;0.00;0.00;;;;;;;7.97;80.12;96809.75;7368392;19;20523;-62
2024/02/09 08:15:56;;;;;;;0.10;0.10;;;;;;;8.09;80.62;96823.56;7366921;19;20045;-63
2024/02/09 08:18:22;;;;;;;0.10;0.10;;;;;;;7.97;80.56;96809.75;7370370;19;20022;-62
2024/02/09 08:20:48;;;;;;;0.08;0.08;;;;;;;8.10;80.50;96825.22;7368108;19;20011;-62
2024/02/09 08:23:13;;;;;;;0.00;0.00;;;;;;;8.06;80.50;96823.81;7369409;19;20029;-62
2024/02/09 08:25:39;;;;;;;0.10;0.10;;;;;;;8.06;80.32;96824.66;7374623;19;20749;-61
2024/02/09 08:28:04;;;;;;;0.03;0.03;;;;;;;8.09;80.34;96827.94;7365122;19;20002;-62
2024/02/09 08:30:30;;;;;;;0.10;0.10;;;;;;;8.12;80.58;96833.75;7369111;19;20359;-62
2024/02/09 08:32:55;;;;;;;0.10;0.10;;;;;;;7.94;80.48;96811.72;7376619;19;20011;-63
2024/02/09 08:35:26;;;;;;;0.10;0.10;;;;;;;8.13;80.55;96839.78;7371672;19;20002;-62
2024/02/09 08:37:51;;;;;;;0.10;0.10;;;;;;;8.10;80.59;96842.59;7366947;19;20011;-61
2024/02/09 08:40:17;;;;;;;0.10;0.10;;;;;;;8.14;80.60;96847.44;7369591;19;19999;-62
2024/02/09 08:42:42;;;;;;;0.10;0.10;;;;;;;8.00;80.49;96821.66;7364925;19;20002;-62
2024/02/09 08:45:08;;;;;;;0.10;0.10;;;;;;;8.13;80.66;96845.78;7369331;19;20481;-61
2024/02/09 08:47:36;;;;;;;0.00;0.00;;;;;;;8.01;80.38;96829.34;7367473;19;20011;-62
2024/02/09 08:50:04;;;;;;;0.10;0.10;;;;;;;8.00;80.66;96827.69;7369794;19;20007;-63
2024/02/09 08:52:42;;;;;;;0.10;0.10;;;;;;;8.18;80.29;96853.25;7372967;19;20002;-62
2024/02/09 08:55:29;;;;;;;0.10;0.10;;;;;;;8.23;80.65;96861.53;7366821;19;20493;-62
2024/02/09 08:57:58;;;;;;;0.10;0.10;;;;;;;8.18;80.54;96858.44;7365531;19;20023;-62
2024/02/09 09:00:24;;;;;;;0.10;0.10;;;;;;;8.20;80.48;96874.75;7366830;19;20081;-62
2024/02/09 09:02:49;;;;;;;0.05;0.05;;;;;;;8.20;80.24;96867.78;7367998;19;20093;-62
2024/02/09 09:05:15;;;;;;;0.05;0.05;;;;;;;8.14;80.60;96863.03;7367364;19;20406;-62
2024/02/09 09:07:40;;;;;;;0.10;0.10;;;;;;;8.22;80.30;96880.69;7364064;19;20010;-61
2024/02/09 09:10:40;;;;;;;0.10;0.10;;;;;;;8.24;80.39;96873.59;7367934;19;20007;-62
2024/02/09 09:13:10;;;;;;;0.10;0.10;;;;;;;8.16;80.52;96865.50;7372169;19;20014;-63
2024/02/09 09:15:40;;;;;;;0.08;0.08;;;;;;;8.21;80.42;96873.78;7366509;19;20486;-62
2024/02/09 09:18:06;;;;;;;0.10;0.10;;;;;;;8.22;80.55;96878.06;7367829;19;20093;-62
2024/02/09 09:20:35;;;;;;;0.05;0.05;;;;;;;8.17;80.47;96867.19;7365588;19;20462;-62
2024/02/09 09:23:01;;;;;;;0.08;0.08;;;;;;;8.22;80.48;96867.69;7368229;19;20462;-62
2024/02/09 09:25:29;;;;;;;0.00;0.00;;;;;;;8.23;80.55;96871.94;7366205;19;20002;-62
2024/02/09 09:27:56;;;;;;;0.10;0.10;;;;;;;8.19;80.29;96866.13;7365909;19;20018;-62
2024/02/09 09:30:34;;;;;;;0.10;0.10;;;;;;;8.19;80.30;96862.69;7363923;19;20018;-62
2024/02/09 09:33:03;;;;;;;;;;;;;;;8.29;80.50;96871.47;7367227;19;20037;-62
2024/02/09 09:35:30;;;;;;;0.10;0.10;;;;;;;8.23;80.10;96864.13;7365868;19;19919;-62
2024/02/09 09:37:59;;;;;;;0.10;0.10;;;;;;;8.27;80.33;96870.75;7365265;19;20006;-60
2024/02/09 09:40:30;;;;;;;0.10;0.10;;;;;;;8.25;80.33;96870.03;7365282;19;20011;-63
2024/02/09 09:42:56;;;;;;;0.10;0.10;;;;;;;8.21;80.46;96866.00;7366367;19;20015;-62
2024/02/09 09:45:21;;;;;;;0.10;0.10;;;;;;;8.26;80.65;96871.69;7365412;19;20066;-62
2024/02/09 09:48:28;;;;;;;0.10;0.10;;;;;;;8.31;80.31;96874.75;7364732;19;20007;-63
2024/02/09 09:50:59;;;;;;;0.10;0.10;;;;;;;8.32;80.14;96876.44;7365874;19;20014;-62
2024/02/09 09:53:53;;;;;;;0.10;0.10;;;;;;;8.34;80.56;96879.75;7366068;19;20021;-62
2024/02/09 09:56:19;;;;;;;0.10;0.10;;;;;;;8.17;80.46;96862.00;7363934;19;20112;-62
2024/02/09 09:58:45;;;;;;;0.10;0.10;;;;;;;8.18;80.18;96858.44;7365161;19;20010;-62
2024/02/09 10:01:12;;;;;;;0.10;0.10;;;;;;;8.32;80.30;96886.84;7363945;19;20011;-62
2024/02/09 10:03:41;;;;;;;0.10;0.10;;;;;;;8.19;80.29;96865.31;7366040;19;20007;-63
2024/02/09 10:06:07;;;;;;;0.10;0.10;;;;;;;8.34;80.20;96890.16;7365628;19;20082;-62
2024/02/09 10:08:38;;;;;;;0.10;0.10;;;;;;;8.38;80.24;96881.22;7364785;19;20074;-62
2024/02/09 10:11:06;;;;;;;0.10;0.10;;;;;;;8.32;80.32;96882.47;7365288;19;20020;-63
2024/02/09 10:13:41;;;;;;;0.10;0.10;;;;;;;8.39;80.47;96879.44;7365371;19;20186;-62
2024/02/09 10:16:06;;;;;;;0.10;0.10;;;;;;;8.40;80.09;96878.50;7365271;19;20010;-62
2024/02/09 10:18:33;;;;;;;0.10;0.10;;;;;;;8.39;80.36;96875.06;7370868;19;20029;-62
2024/02/09 10:21:02;;;;;;;0.10;0.10;;;;;;;8.43;80.09;96876.50;7370068;19;20010;-62
2024/02/09 10:23:37;;;;;;;0.00;0.00;;;;;;;8.32;80.07;96847.84;7366677;19;20025;-62
2024/02/09 10:26:04;;;;;;;0.10;0.10;;;;;;;8.42;80.07;96872.25;7365090;19;20018;-62
2024/02/09 10:28:38;;;;;;;0.10;0.10;;;;;;;8.48;80.04;96871.78;7364554;19;20014;-61
2024/02/09 10:31:26;;;;;;;0.10;0.10;;;;;;;8.52;80.35;96868.00;7364280;19;20836;-62
2024/02/09 10:33:53;;;;;;;0.10;0.10;;;;;;;8.51;79.99;96865.50;7365686;19;20007;-62
2024/02/09 10:36:23;;;;;;;0.10;0.10;;;;;;;8.39;80.50;96846.47;7364911;19;20010;-63
2024/02/09 10:38:48;;;;;;;0.10;0.10;;;;;;;8.38;79.87;96852.63;7367357;19;20755;-62
2024/02/09 10:41:16;;;;;;;0.10;0.10;;;;;;;8.51;80.43;96861.13;7367440;19;20010;-62
2024/02/09 10:43:47;;;;;;;0.10;0.10;;;;;;;8.60;80.29;96874.38;7363190;19;20073;-62
2024/02/09 10:46:17;;;;;;;0.10;0.10;;;;;;;8.51;80.02;96852.50;7365547;19;20014;-62
2024/02/09 10:48:47;;;;;;;0.10;0.10;;;;;;;8.58;80.21;96859.75;7363462;19;20081;-62
2024/02/09 10:51:14;;;;;;;0.10;0.10;;;;;;;8.55;80.26;96862.56;7366049;19;20014;-62
2024/02/09 10:53:52;;;;;;;0.10;0.10;;;;;;;8.62;80.41;96867.28;7364509;19;20017;-62
2024/02/09 10:56:25;;;;;;;0.10;0.10;;;;;;;8.62;80.28;96862.09;7364946;19;20598;-62
2024/02/09 10:58:52;;;;;;;0.10;0.10;;;;;;;8.51;79.92;96848.13;7363752;19;20011;-62
2024/02/09 11:01:33;;;;;;;0.10;0.10;;;;;;;8.71;79.89;96871.78;7363267;19;20064;-62
2024/02/09 11:04:04;;;;;;;0.10;0.10;;;;;;;8.72;80.08;96873.47;7362517;19;20015;-62
2024/02/09 11:06:29;;;;;;;0.10;0.10;;;;;;;8.69;80.27;96877.13;7362728;19;20003;-62
2024/02/09 11:08:56;;;;;;;0.10;0.10;;;;;;;8.73;80.17;96880.31;7363279;19;20021;-62
2024/02/09 11:11:27;;;;;;;0.10;0.10;;;;;;;8.76;80.34;96880.06;7368654;19;20093;-62
2024/02/09 11:14:03;;;;;;;0.10;0.10;;;;;;;8.81;80.36;96872.75;7369241;19;20019;-62
2024/02/09 11:16:29;;;;;;;0.10;0.10;;;;;;;8.69;79.94;96868.50;7369610;19;20006;-62
2024/02/09 11:18:57;;;;;;;0.10;0.10;;;;;;;8.88;80.08;96879.16;7367837;19;20735;-63
2024/02/09 11:21:24;;;;;;;0.10;0.10;;;;;;;8.88;80.33;96873.94;7361432;19;20024;-62
2024/02/09 11:23:50;;;;;;;0.10;0.10;;;;;;;8.96;79.88;96876.78;7362583;19;20044;-62
2024/02/09 11:26:15;;;;;;;0.10;0.10;;;;;;;8.96;79.71;96868.13;7362313;19;20007;-62
2024/02/09 11:28:41;;;;;;;0.10;0.10;;;;;;;9.04;79.92;96874.41;7361715;19;20018;-62
2024/02/09 11:31:10;;;;;;;0.10;0.10;;;;;;;8.90;79.91;96843.44;7360864;19;20019;-62
2024/02/09 11:33:36;;;;;;;0.10;0.10;;;;;;;9.14;79.83;96873.69;7362904;19;20506;-62
2024/02/09 11:36:02;;;;;;;0.10;0.10;;;;;;;9.18;79.55;96875.13;7364940;19;20040;-61
2024/02/09 11:38:28;;;;;;;0.10;0.10;;;;;;;9.22;79.52;96876.50;7369132;19;20609;-62
2024/02/09 11:40:54;;;;;;;0.10;0.10;;;;;;;9.24;79.63;96870.25;7370321;19;20018;-62
2024/02/09 11:43:19;;;;;;;0.10;0.10;;;;;;;9.26;79.26;96870.13;7370249;19;20028;-62
2024/02/09 11:45:45;;;;;;;0.10;0.10;;;;;;;8.86;79.66;96802.16;7369869;19;20015;-62
2024/02/09 11:48:12;;;;;;;0.08;0.08;;;;;;;9.27;79.68;96866.56;7367883;19;20010;-62
2024/02/09 11:50:38;;;;;;;0.10;0.10;;;;;;;9.33;79.43;96876.53;7370361;19;20010;-62
2024/02/09 11:53:04;;;;;;;0.13;0.13;;;;;;;9.20;79.55;96845.41;7370680;19;20014;-62
2024/02/09 11:55:30;;;;;;;0.20;0.20;;;;;;;9.35;79.51;96862.41;7369045;19;20050;-62
2024/02/09 11:57:55;;;;;;;0.10;0.10;;;;;;;9.38;79.35;96861.38;7369769;19;20030;-62
2024/02/09 12:00:25;;;;;;;0.00;0.00;;;;;;;9.43;79.59;96868.78;7369436;19;20376;-62
2024/02/09 12:02:51;;;;;;;0.10;0.10;;;;;;;9.43;79.58;96866.19;7370360;19;20014;-62
2024/02/09 12:05:17;;;;;;;0.10;0.10;;;;;;;9.50;79.36;96869.97;7370943;19;20010;-62
2024/02/09 12:07:42;;;;;;;0.10;0.10;;;;;;;9.53;79.28;96865.34;7368715;19;20110;-62
2024/02/09 12:10:08;;;;;;;0.10;0.10;;;;;;;9.56;79.28;96865.09;7368094;19;20070;-62
2024/02/09 12:12:35;;;;;;;0.10;0.10;;;;;;;9.61;79.29;96864.72;7368929;19;20011;-62
2024/02/09 12:15:02;;;;;;;0.10;0.10;;;;;;;9.60;79.14;96850.06;7371311;19;20014;-62
2024/02/09 12:17:30;;;;;;;0.10;0.10;;;;;;;9.70;79.30;96852.75;7367612;19;20007;-62
2024/02/09 12:19:59;;;;;;;0.10;0.10;;;;;;;9.72;79.33;96850.84;7368539;19;20545;-62
2024/02/09 12:22:25;;;;;;;0.10;0.10;;;;;;;9.75;78.94;96848.00;7367820;19;20017;-62
2024/02/09 12:24:51;;;;;;;0.10;0.10;;;;;;;9.83;79.02;96856.00;7370991;19;20113;-62
2024/02/09 12:27:18;;;;;;;0.08;0.08;;;;;;;9.87;79.05;96857.41;7369664;19;20010;-62
2024/02/09 12:29:44;;;;;;;0.10;0.10;;;;;;;9.80;78.57;96830.22;7366234;19;20745;-62
2024/02/09 12:32:10;;;;;;;0.10;0.10;;;;;;;9.94;78.54;96848.16;7366722;19;20014;-62
2024/02/09 12:34:46;;;;;;;0.00;0.00;;;;;;;10.00;79.08;96842.44;7368829;19;20014;-62
2024/02/09 12:37:15;;;;;;;0.10;0.10;;;;;;;9.99;78.54;96840.78;7366972;19;20025;-62
2024/02/09 12:39:41;;;;;;;0.10;0.10;;;;;;;10.01;78.41;96840.66;7366620;19;20761;-62
2024/02/09 12:42:08;;;;;;;0.10;0.10;;;;;;;10.00;78.71;96834.63;7367553;19;20106;-62
2024/02/09 12:44:37;;;;;;;0.10;0.10;;;;;;;10.06;78.85;96830.69;7370955;19;20018;-62
2024/02/09 12:47:03;;;;;;;0.10;0.10;;;;;;;10.01;78.32;96833.66;7374572;19;20058;-63
2024/02/09 12:49:28;;;;;;;0.10;0.10;;;;;;;10.03;78.58;96839.56;7368133;19;20014;-63
2024/02/09 12:51:54;;;;;;;0.10;0.10;;;;;;;10.04;78.71;96828.22;7368517;19;20021;-62
2024/02/09 12:54:20;;;;;;;0.08;0.08;;;;;;;9.90;78.54;96804.22;7367244;19;20015;-62
2024/02/09 12:56:45;;;;;;;0.10;0.10;;;;;;;10.04;78.61;96828.22;7367074;19;20015;-62
2024/02/09 12:59:10;;;;;;;0.10;0.10;;;;;;;10.05;78.85;96829.84;7368263;19;20061;-62
2024/02/09 13:01:36;;;;;;;0.10;0.10;;;;;;;10.08;78.48;96840.00;7369231;19;20109;-62
2024/02/09 13:04:02;;;;;;;0.10;0.10;;;;;;;10.10;78.73;96832.91;7368593;19;20014;-62
2024/02/09 13:06:27;;;;;;;0.10;0.10;;;;;;;10.14;78.69;96836.94;7369701;19;20111;-62
2024/02/09 13:08:56;;;;;;;0.10;0.10;;;;;;;10.13;78.43;96827.44;7370929;19;20787;-62
2024/02/09 13:11:24;;;;;;;0.10;0.10;;;;;;;10.21;78.39;96831.19;7366136;19;20027;-63
2024/02/09 13:13:49;;;;;;;0.10;0.10;;;;;;;10.19;78.33;96825.25;7366215;19;20803;-63
2024/02/09 13:16:14;;;;;;;0.10;0.10;;;;;;;10.26;78.59;96831.66;7367626;19;20086;-63
2024/02/09 13:18:40;;;;;;;0.20;0.20;;;;;;;10.13;78.40;96806.56;7365828;19;20017;-63
2024/02/09 13:21:05;;;;;;;0.15;0.15;;;;;;;10.30;78.34;96833.06;7366160;19;20017;-63
2024/02/09 13:23:31;;;;;;;0.00;0.00;;;;;;;10.21;78.51;96805.94;7373764;19;20017;-62
2024/02/09 13:26:00;;;;;;;0.10;0.10;;;;;;;10.36;78.45;96824.75;7373926;19;20014;-63
2024/02/09 13:28:29;;;;;;;0.10;0.10;;;;;;;10.38;78.22;96821.03;7373041;19;20015;-62
2024/02/09 13:30:56;;;;;;;0.10;0.10;;;;;;;10.40;78.58;96828.75;7371463;19;20018;-62
2024/02/09 13:33:22;;;;;;;0.10;0.10;;;;;;;10.41;78.45;96819.97;7366673;19;20014;-62
2024/02/09 13:35:47;;;;;;;0.10;0.10;;;;;;;10.42;78.46;96821.59;7367216;19;20037;-63